Terminal Aerodrome Forecast
Issued by NWS

Home | Current Version | Previous Version | Graphics & Text | Print | Product List | Glossary On
Versions: 1 2 3 4 5 6 7 8 9 10 11 12 13
000
FTUS43 KIWX 160900 AAC
TAFSBN
TAF AMD
KSBN 160947Z 1610/1706 02005KT 6SM BR BKN040
     FM161100 35003KT 6SM BR SCT040
      TEMPO 1611/1612 4SM BR
     FM161400 31005KT P6SM BKN020
     FM161600 30008KT P6SM BKN035=

USA.gov is the U.S. government's official web portal to all federal, state and local government web resources and services.